sensor_id;sensor_type;location;lat;lon;timestamp;temperature;humidity
79716;DHT22;69209;51.420;5.400;2023-04-15T00:01:50;14.30;69.30
79716;DHT22;69209;51.420;5.400;2023-04-15T00:04:16;14.30;69.30
79716;DHT22;69209;51.420;5.400;2023-04-15T00:06:42;14.20;69.30
79716;DHT22;69209;51.420;5.400;2023-04-15T00:09:07;14.20;69.40
79716;DHT22;69209;51.420;5.400;2023-04-15T00:11:33;14.20;69.50
79716;DHT22;69209;51.420;5.400;2023-04-15T00:13:59;14.20;69.50
79716;DHT22;69209;51.420;5.400;2023-04-15T00:16:25;14.10;69.60
79716;DHT22;69209;51.420;5.400;2023-04-15T00:18:50;14.10;69.60
79716;DHT22;69209;51.420;5.400;2023-04-15T00:21:16;14.10;69.70
79716;DHT22;69209;51.420;5.400;2023-04-15T00:23:41;14.10;69.70
79716;DHT22;69209;51.420;5.400;2023-04-15T00:26:07;14.10;69.70
79716;DHT22;69209;51.420;5.400;2023-04-15T00:28:32;14.10;69.80
79716;DHT22;69209;51.420;5.400;2023-04-15T00:30:58;14.00;69.80
79716;DHT22;69209;51.420;5.400;2023-04-15T00:33:24;14.00;69.90
79716;DHT22;69209;51.420;5.400;2023-04-15T00:35:49;14.00;70.00
79716;DHT22;69209;51.420;5.400;2023-04-15T00:38:15;13.90;70.00
79716;DHT22;69209;51.420;5.400;2023-04-15T00:40:40;14.00;70.00
79716;DHT22;69209;51.420;5.400;2023-04-15T00:43:06;13.90;70.00
79716;DHT22;69209;51.420;5.400;2023-04-15T00:45:31;13.90;70.10
79716;DHT22;69209;51.420;5.400;2023-04-15T00:47:58;13.90;70.00
79716;DHT22;69209;51.420;5.400;2023-04-15T00:50:23;13.90;70.10
79716;DHT22;69209;51.420;5.400;2023-04-15T00:52:49;13.80;70.10
79716;DHT22;69209;51.420;5.400;2023-04-15T00:55:15;13.80;70.20
79716;DHT22;69209;51.420;5.400;2023-04-15T00:57:40;13.80;70.20
79716;DHT22;69209;51.420;5.400;2023-04-15T01:00:06;13.80;70.30
79716;DHT22;69209;51.420;5.400;2023-04-15T01:02:36;13.80;70.30
79716;DHT22;69209;51.420;5.400;2023-04-15T01:05:03;13.80;70.40
79716;DHT22;69209;51.420;5.400;2023-04-15T01:07:29;13.80;70.50
79716;DHT22;69209;51.420;5.400;2023-04-15T01:09:56;13.70;70.40
79716;DHT22;69209;51.420;5.400;2023-04-15T01:12:21;13.70;70.40
79716;DHT22;69209;51.420;5.400;2023-04-15T01:14:48;13.70;70.50
79716;DHT22;69209;51.420;5.400;2023-04-15T01:17:14;13.70;70.60
79716;DHT22;69209;51.420;5.400;2023-04-15T01:19:39;13.70;70.50
79716;DHT22;69209;51.420;5.400;2023-04-15T01:22:05;13.60;70.60
79716;DHT22;69209;51.420;5.400;2023-04-15T01:24:31;13.60;70.60
79716;DHT22;69209;51.420;5.400;2023-04-15T01:26:58;13.60;70.60
79716;DHT22;69209;51.420;5.400;2023-04-15T01:29:23;13.60;70.70
79716;DHT22;69209;51.420;5.400;2023-04-15T01:31:52;13.60;70.70
79716;DHT22;69209;51.420;5.400;2023-04-15T01:34:18;13.60;70.80
79716;DHT22;69209;51.420;5.400;2023-04-15T01:36:44;13.50;70.80
79716;DHT22;69209;51.420;5.400;2023-04-15T01:39:09;13.60;70.90
79716;DHT22;69209;51.420;5.400;2023-04-15T01:41:35;13.50;70.90
79716;DHT22;69209;51.420;5.400;2023-04-15T01:44:00;13.50;71.00
79716;DHT22;69209;51.420;5.400;2023-04-15T01:46:26;13.50;70.90
79716;DHT22;69209;51.420;5.400;2023-04-15T01:48:51;13.40;70.90
79716;DHT22;69209;51.420;5.400;2023-04-15T01:51:17;13.50;71.00
79716;DHT22;69209;51.420;5.400;2023-04-15T01:53:42;13.50;71.00
79716;DHT22;69209;51.420;5.400;2023-04-15T01:56:08;13.40;71.00
79716;DHT22;69209;51.420;5.400;2023-04-15T01:58:33;13.40;71.00
79716;DHT22;69209;51.420;5.400;2023-04-15T02:00:59;13.40;71.00
79716;DHT22;69209;51.420;5.400;2023-04-15T02:03:24;13.40;71.00
79716;DHT22;69209;51.420;5.400;2023-04-15T02:05:50;13.40;71.00
79716;DHT22;69209;51.420;5.400;2023-04-15T02:08:15;13.40;71.00
79716;DHT22;69209;51.420;5.400;2023-04-15T02:10:41;13.30;71.10
79716;DHT22;69209;51.420;5.400;2023-04-15T02:13:07;13.30;71.10
79716;DHT22;69209;51.420;5.400;2023-04-15T02:15:33;13.40;71.30
79716;DHT22;69209;51.420;5.400;2023-04-15T02:17:59;13.30;71.20
79716;DHT22;69209;51.420;5.400;2023-04-15T02:20:26;13.30;71.20
79716;DHT22;69209;51.420;5.400;2023-04-15T02:22:51;13.30;71.30
79716;DHT22;69209;51.420;5.400;2023-04-15T02:25:17;13.30;71.40
79716;DHT22;69209;51.420;5.400;2023-04-15T02:27:42;13.30;71.40
79716;DHT22;69209;51.420;5.400;2023-04-15T02:30:11;13.30;71.40
79716;DHT22;69209;51.420;5.400;2023-04-15T02:32:36;13.20;71.40
79716;DHT22;69209;51.420;5.400;2023-04-15T02:35:06;13.20;71.40
79716;DHT22;69209;51.420;5.400;2023-04-15T02:37:32;13.20;71.60
79716;DHT22;69209;51.420;5.400;2023-04-15T02:40:01;13.20;71.50
79716;DHT22;69209;51.420;5.400;2023-04-15T02:42:27;13.20;71.50
79716;DHT22;69209;51.420;5.400;2023-04-15T02:44:54;13.20;71.50
79716;DHT22;69209;51.420;5.400;2023-04-15T02:47:20;13.10;71.50
79716;DHT22;69209;51.420;5.400;2023-04-15T02:49:46;13.10;71.50
79716;DHT22;69209;51.420;5.400;2023-04-15T02:52:11;13.20;71.50
79716;DHT22;69209;51.420;5.400;2023-04-15T02:54:38;13.10;71.60
79716;DHT22;69209;51.420;5.400;2023-04-15T02:57:04;13.10;71.70
79716;DHT22;69209;51.420;5.400;2023-04-15T02:59:31;13.10;71.70
79716;DHT22;69209;51.420;5.400;2023-04-15T03:01:56;13.10;71.70
79716;DHT22;69209;51.420;5.400;2023-04-15T03:04:25;13.00;71.70
79716;DHT22;69209;51.420;5.400;2023-04-15T03:06:50;13.00;71.70
79716;DHT22;69209;51.420;5.400;2023-04-15T03:09:16;13.00;71.70
79716;DHT22;69209;51.420;5.400;2023-04-15T03:11:41;13.00;71.80
79716;DHT22;69209;51.420;5.400;2023-04-15T03:14:07;12.90;71.80
79716;DHT22;69209;51.420;5.400;2023-04-15T03:16:32;12.90;71.80
79716;DHT22;69209;51.420;5.400;2023-04-15T03:18:58;12.90;72.70
79716;DHT22;69209;51.420;5.400;2023-04-15T03:21:25;12.90;72.00
79716;DHT22;69209;51.420;5.400;2023-04-15T03:23:50;12.80;72.00
79716;DHT22;69209;51.420;5.400;2023-04-15T03:26:26;12.80;72.10
79716;DHT22;69209;51.420;5.400;2023-04-15T03:28:52;12.80;72.20
79716;DHT22;69209;51.420;5.400;2023-04-15T03:31:18;12.80;72.20
79716;DHT22;69209;51.420;5.400;2023-04-15T03:33:43;12.80;72.30
79716;DHT22;69209;51.420;5.400;2023-04-15T03:36:09;12.70;72.30
79716;DHT22;69209;51.420;5.400;2023-04-15T03:38:34;12.70;72.40
79716;DHT22;69209;51.420;5.400;2023-04-15T03:41:00;12.70;72.40
79716;DHT22;69209;51.420;5.400;2023-04-15T03:43:26;12.70;72.50
79716;DHT22;69209;51.420;5.400;2023-04-15T03:45:52;12.70;72.60
79716;DHT22;69209;51.420;5.400;2023-04-15T03:48:17;12.60;72.60
79716;DHT22;69209;51.420;5.400;2023-04-15T03:50:43;12.60;72.70
79716;DHT22;69209;51.420;5.400;2023-04-15T03:53:08;12.60;72.70
79716;DHT22;69209;51.420;5.400;2023-04-15T03:55:33;12.60;72.70
79716;DHT22;69209;51.420;5.400;2023-04-15T03:57:59;12.60;72.80
79716;DHT22;69209;51.420;5.400;2023-04-15T04:00:25;12.60;72.80
79716;DHT22;69209;51.420;5.400;2023-04-15T04:02:50;12.50;72.90
79716;DHT22;69209;51.420;5.400;2023-04-15T04:05:16;12.50;72.90
79716;DHT22;69209;51.420;5.400;2023-04-15T04:07:42;12.50;73.00
79716;DHT22;69209;51.420;5.400;2023-04-15T04:10:07;12.50;73.00
79716;DHT22;69209;51.420;5.400;2023-04-15T04:12:33;12.40;73.10
79716;DHT22;69209;51.420;5.400;2023-04-15T04:14:58;12.50;73.20
79716;DHT22;69209;51.420;5.400;2023-04-15T04:17:24;12.40;73.20
79716;DHT22;69209;51.420;5.400;2023-04-15T04:19:49;12.40;73.30
79716;DHT22;69209;51.420;5.400;2023-04-15T04:22:15;12.40;73.40
79716;DHT22;69209;51.420;5.400;2023-04-15T04:24:40;12.40;73.30
79716;DHT22;69209;51.420;5.400;2023-04-15T04:27:06;12.30;73.40
79716;DHT22;69209;51.420;5.400;2023-04-15T04:29:31;12.30;73.40
79716;DHT22;69209;51.420;5.400;2023-04-15T04:31:57;12.30;73.50
79716;DHT22;69209;51.420;5.400;2023-04-15T04:34:22;12.30;73.50
79716;DHT22;69209;51.420;5.400;2023-04-15T04:36:48;12.30;73.50
79716;DHT22;69209;51.420;5.400;2023-04-15T04:39:13;12.30;73.50
79716;DHT22;69209;51.420;5.400;2023-04-15T04:41:39;12.30;73.50
79716;DHT22;69209;51.420;5.400;2023-04-15T04:44:05;12.30;73.70
79716;DHT22;69209;51.420;5.400;2023-04-15T04:46:31;12.20;73.60
79716;DHT22;69209;51.420;5.400;2023-04-15T04:48:56;12.20;73.70
79716;DHT22;69209;51.420;5.400;2023-04-15T04:51:22;12.20;73.80
79716;DHT22;69209;51.420;5.400;2023-04-15T04:53:47;12.20;73.80
79716;DHT22;69209;51.420;5.400;2023-04-15T04:56:13;12.20;73.80
79716;DHT22;69209;51.420;5.400;2023-04-15T04:58:38;12.20;73.80
79716;DHT22;69209;51.420;5.400;2023-04-15T05:01:04;12.20;73.90
79716;DHT22;69209;51.420;5.400;2023-04-15T05:03:30;12.10;73.80
79716;DHT22;69209;51.420;5.400;2023-04-15T05:05:55;12.20;73.90
79716;DHT22;69209;51.420;5.400;2023-04-15T05:08:21;12.20;73.90
79716;DHT22;69209;51.420;5.400;2023-04-15T05:10:46;12.20;73.90
79716;DHT22;69209;51.420;5.400;2023-04-15T05:13:12;12.20;74.00
79716;DHT22;69209;51.420;5.400;2023-04-15T05:15:37;12.20;73.90
79716;DHT22;69209;51.420;5.400;2023-04-15T05:18:05;12.30;73.90
79716;DHT22;69209;51.420;5.400;2023-04-15T05:20:31;12.40;73.50
79716;DHT22;69209;51.420;5.400;2023-04-15T05:22:56;12.60;73.20
79716;DHT22;69209;51.420;5.400;2023-04-15T05:25:22;12.70;72.50
79716;DHT22;69209;51.420;5.400;2023-04-15T05:27:47;13.10;71.70
79716;DHT22;69209;51.420;5.400;2023-04-15T05:30:13;13.30;70.60
79716;DHT22;69209;51.420;5.400;2023-04-15T05:32:38;13.30;70.50
79716;DHT22;69209;51.420;5.400;2023-04-15T05:35:04;13.20;70.60
79716;DHT22;69209;51.420;5.400;2023-04-15T05:37:30;13.10;70.80
79716;DHT22;69209;51.420;5.400;2023-04-15T05:39:56;13.10;71.00
79716;DHT22;69209;51.420;5.400;2023-04-15T05:42:22;13.00;71.10
79716;DHT22;69209;51.420;5.400;2023-04-15T05:44:47;13.00;71.30
79716;DHT22;69209;51.420;5.400;2023-04-15T05:47:13;13.00;71.40
79716;DHT22;69209;51.420;5.400;2023-04-15T05:49:38;13.00;71.50
79716;DHT22;69209;51.420;5.400;2023-04-15T05:52:04;13.10;71.50
79716;DHT22;69209;51.420;5.400;2023-04-15T05:54:30;13.20;71.30
79716;DHT22;69209;51.420;5.400;2023-04-15T05:56:55;13.40;71.00
79716;DHT22;69209;51.420;5.400;2023-04-15T05:59:21;13.50;70.40
79716;DHT22;69209;51.420;5.400;2023-04-15T06:01:47;13.80;69.90
79716;DHT22;69209;51.420;5.400;2023-04-15T06:04:13;14.10;68.90
79716;DHT22;69209;51.420;5.400;2023-04-15T06:06:39;14.60;67.80
79716;DHT22;69209;51.420;5.400;2023-04-15T06:09:05;15.10;66.50
79716;DHT22;69209;51.420;5.400;2023-04-15T06:11:30;15.30;65.30
79716;DHT22;69209;51.420;5.400;2023-04-15T06:13:56;15.30;65.60
79716;DHT22;69209;51.420;5.400;2023-04-15T06:16:21;15.60;65.60
79716;DHT22;69209;51.420;5.400;2023-04-15T06:18:47;16.70;63.60
79716;DHT22;69209;51.420;5.400;2023-04-15T06:21:13;17.80;60.40
79716;DHT22;69209;51.420;5.400;2023-04-15T06:23:38;19.00;57.90
79716;DHT22;69209;51.420;5.400;2023-04-15T06:26:05;19.10;56.40
79716;DHT22;69209;51.420;5.400;2023-04-15T06:28:31;18.90;56.90
79716;DHT22;69209;51.420;5.400;2023-04-15T06:30:57;18.80;57.40
79716;DHT22;69209;51.420;5.400;2023-04-15T06:33:22;18.70;57.80
79716;DHT22;69209;51.420;5.400;2023-04-15T06:35:48;18.70;58.20
79716;DHT22;69209;51.420;5.400;2023-04-15T06:38:13;18.90;58.40
79716;DHT22;69209;51.420;5.400;2023-04-15T06:40:39;19.00;58.50
79716;DHT22;69209;51.420;5.400;2023-04-15T06:43:05;19.30;58.30
79716;DHT22;69209;51.420;5.400;2023-04-15T06:45:30;19.60;58.10
79716;DHT22;69209;51.420;5.400;2023-04-15T06:47:56;19.90;58.00
79716;DHT22;69209;51.420;5.400;2023-04-15T06:50:22;20.10;57.60
79716;DHT22;69209;51.420;5.400;2023-04-15T06:52:47;20.50;57.30
79716;DHT22;69209;51.420;5.400;2023-04-15T06:55:13;20.80;56.80
79716;DHT22;69209;51.420;5.400;2023-04-15T06:57:39;21.20;56.40
79716;DHT22;69209;51.420;5.400;2023-04-15T07:00:04;21.60;56.10
79716;DHT22;69209;51.420;5.400;2023-04-15T07:02:30;22.10;55.50
79716;DHT22;69209;51.420;5.400;2023-04-15T07:04:56;22.60;54.90
79716;DHT22;69209;51.420;5.400;2023-04-15T07:07:22;23.10;54.40
79716;DHT22;69209;51.420;5.400;2023-04-15T07:12:47;23.50;47.10
79716;DHT22;69209;51.420;5.400;2023-04-15T07:15:12;23.30;45.50
79716;DHT22;69209;51.420;5.400;2023-04-15T07:17:39;23.20;44.10
79716;DHT22;69209;51.420;5.400;2023-04-15T07:20:04;23.20;43.50
79716;DHT22;69209;51.420;5.400;2023-04-15T07:22:30;23.50;45.30
79716;DHT22;69209;51.420;5.400;2023-04-15T07:24:56;24.00;45.30
79716;DHT22;69209;51.420;5.400;2023-04-15T07:27:21;24.30;43.50
79716;DHT22;69209;51.420;5.400;2023-04-15T07:29:47;24.20;42.30
79716;DHT22;69209;51.420;5.400;2023-04-15T07:32:12;23.50;42.90
79716;DHT22;69209;51.420;5.400;2023-04-15T07:34:38;23.20;43.20
79716;DHT22;69209;51.420;5.400;2023-04-15T07:37:03;22.80;43.60
79716;DHT22;69209;51.420;5.400;2023-04-15T07:39:29;22.50;43.90
79716;DHT22;69209;51.420;5.400;2023-04-15T07:41:55;22.30;44.20
79716;DHT22;69209;51.420;5.400;2023-04-15T07:44:21;22.20;44.50
79716;DHT22;69209;51.420;5.400;2023-04-15T07:46:46;22.10;44.40
79716;DHT22;69209;51.420;5.400;2023-04-15T07:49:12;22.00;44.40
79716;DHT22;69209;51.420;5.400;2023-04-15T07:51:37;21.90;44.40
79716;DHT22;69209;51.420;5.400;2023-04-15T07:54:03;21.70;45.00
79716;DHT22;69209;51.420;5.400;2023-04-15T07:56:28;21.70;44.40
79716;DHT22;69209;51.420;5.400;2023-04-15T07:58:54;21.70;44.10
79716;DHT22;69209;51.420;5.400;2023-04-15T08:01:19;21.60;44.50
79716;DHT22;69209;51.420;5.400;2023-04-15T08:03:45;21.50;43.80
79716;DHT22;69209;51.420;5.400;2023-04-15T08:06:11;21.40;43.60
79716;DHT22;69209;51.420;5.400;2023-04-15T08:08:37;21.50;44.60
79716;DHT22;69209;51.420;5.400;2023-04-15T08:11:02;21.60;43.60
79716;DHT22;69209;51.420;5.400;2023-04-15T08:13:28;21.40;43.50
79716;DHT22;69209;51.420;5.400;2023-04-15T08:18:37;21.20;44.20
79716;DHT22;69209;51.420;5.400;2023-04-15T08:21:03;21.20;44.00
79716;DHT22;69209;51.420;5.400;2023-04-15T08:23:28;21.30;44.50
79716;DHT22;69209;51.420;5.400;2023-04-15T08:25:54;21.50;45.30
79716;DHT22;69209;51.420;5.400;2023-04-15T08:28:19;21.90;45.30
79716;DHT22;69209;51.420;5.400;2023-04-15T08:30:45;22.20;46.00
79716;DHT22;69209;51.420;5.400;2023-04-15T08:33:11;22.40;46.50
79716;DHT22;69209;51.420;5.400;2023-04-15T08:35:36;22.60;46.90
79716;DHT22;69209;51.420;5.400;2023-04-15T08:38:02;23.00;46.70
79716;DHT22;69209;51.420;5.400;2023-04-15T08:40:28;23.30;46.30
79716;DHT22;69209;51.420;5.400;2023-04-15T08:42:59;23.60;45.80
79716;DHT22;69209;51.420;5.400;2023-04-15T08:45:25;24.00;45.80
79716;DHT22;69209;51.420;5.400;2023-04-15T08:47:51;24.30;45.20
79716;DHT22;69209;51.420;5.400;2023-04-15T08:50:19;24.60;45.00
79716;DHT22;69209;51.420;5.400;2023-04-15T08:52:45;24.90;44.10
79716;DHT22;69209;51.420;5.400;2023-04-15T08:55:10;25.30;44.10
79716;DHT22;69209;51.420;5.400;2023-04-15T08:57:36;25.50;43.90
79716;DHT22;69209;51.420;5.400;2023-04-15T09:00:02;25.70;43.90
79716;DHT22;69209;51.420;5.400;2023-04-15T09:02:28;25.90;43.30
79716;DHT22;69209;51.420;5.400;2023-04-15T09:04:54;26.10;42.80
79716;DHT22;69209;51.420;5.400;2023-04-15T09:07:19;26.30;42.90
79716;DHT22;69209;51.420;5.400;2023-04-15T09:09:45;26.50;42.40
79716;DHT22;69209;51.420;5.400;2023-04-15T09:12:10;26.70;42.50
79716;DHT22;69209;51.420;5.400;2023-04-15T09:14:37;26.80;42.70
79716;DHT22;69209;51.420;5.400;2023-04-15T09:17:04;27.00;41.70
79716;DHT22;69209;51.420;5.400;2023-04-15T09:19:29;27.20;41.00
79716;DHT22;69209;51.420;5.400;2023-04-15T09:21:57;27.30;41.30
79716;DHT22;69209;51.420;5.400;2023-04-15T09:24:23;27.50;40.10
79716;DHT22;69209;51.420;5.400;2023-04-15T09:26:51;27.60;40.20
79716;DHT22;69209;51.420;5.400;2023-04-15T09:29:16;27.70;39.60
79716;DHT22;69209;51.420;5.400;2023-04-15T09:31:42;27.70;40.60
79716;DHT22;69209;51.420;5.400;2023-04-15T09:34:08;27.60;39.60
79716;DHT22;69209;51.420;5.400;2023-04-15T09:39:12;27.60;39.70
79716;DHT22;69209;51.420;5.400;2023-04-15T09:41:38;27.50;39.40
79716;DHT22;69209;51.420;5.400;2023-04-15T09:44:04;26.90;33.80
79716;DHT22;69209;51.420;5.400;2023-04-15T09:46:39;26.20;34.50
79716;DHT22;69209;51.420;5.400;2023-04-15T09:49:06;25.80;35.20
79716;DHT22;69209;51.420;5.400;2023-04-15T09:51:35;25.60;35.20
79716;DHT22;69209;51.420;5.400;2023-04-15T09:54:01;25.10;34.80
79716;DHT22;69209;51.420;5.400;2023-04-15T09:56:34;24.90;35.70
79716;DHT22;69209;51.420;5.400;2023-04-15T09:59:09;24.70;35.70
79716;DHT22;69209;51.420;5.400;2023-04-15T10:01:35;24.50;36.10
79716;DHT22;69209;51.420;5.400;2023-04-15T10:04:01;24.40;36.40
79716;DHT22;69209;51.420;5.400;2023-04-15T10:06:27;24.20;36.40
79716;DHT22;69209;51.420;5.400;2023-04-15T10:08:54;24.10;36.60
79716;DHT22;69209;51.420;5.400;2023-04-15T10:11:20;23.80;36.70
79716;DHT22;69209;51.420;5.400;2023-04-15T10:13:48;23.70;37.10
79716;DHT22;69209;51.420;5.400;2023-04-15T10:16:15;23.50;37.80
79716;DHT22;69209;51.420;5.400;2023-04-15T10:18:43;23.50;38.40
79716;DHT22;69209;51.420;5.400;2023-04-15T10:21:09;23.50;38.30
79716;DHT22;69209;51.420;5.400;2023-04-15T10:23:34;23.60;38.70
79716;DHT22;69209;51.420;5.400;2023-04-15T10:26:01;23.60;39.00
79716;DHT22;69209;51.420;5.400;2023-04-15T10:28:27;23.70;39.00
79716;DHT22;69209;51.420;5.400;2023-04-15T10:30:53;23.80;38.90
79716;DHT22;69209;51.420;5.400;2023-04-15T10:33:19;23.80;39.00
79716;DHT22;69209;51.420;5.400;2023-04-15T10:35:45;23.80;38.60
79716;DHT22;69209;51.420;5.400;2023-04-15T10:43:37;24.00;38.30
79716;DHT22;69209;51.420;5.400;2023-04-15T10:46:06;24.10;38.10
79716;DHT22;69209;51.420;5.400;2023-04-15T10:48:32;24.10;37.20
79716;DHT22;69209;51.420;5.400;2023-04-15T10:50:59;24.10;37.20
79716;DHT22;69209;51.420;5.400;2023-04-15T10:53:26;24.10;37.00
79716;DHT22;69209;51.420;5.400;2023-04-15T10:55:52;24.30;36.80
79716;DHT22;69209;51.420;5.400;2023-04-15T10:58:18;24.30;36.90
79716;DHT22;69209;51.420;5.400;2023-04-15T11:00:50;24.20;35.80
79716;DHT22;69209;51.420;5.400;2023-04-15T11:03:35;24.00;35.80
79716;DHT22;69209;51.420;5.400;2023-04-15T11:06:02;24.00;36.30
79716;DHT22;69209;51.420;5.400;2023-04-15T11:11:12;23.90;37.30
79716;DHT22;69209;51.420;5.400;2023-04-15T11:13:46;24.00;37.30
79716;DHT22;69209;51.420;5.400;2023-04-15T11:16:11;24.00;37.00
79716;DHT22;69209;51.420;5.400;2023-04-15T11:18:37;23.90;36.60
79716;DHT22;69209;51.420;5.400;2023-04-15T11:21:04;24.00;37.10
79716;DHT22;69209;51.420;5.400;2023-04-15T11:23:34;24.00;37.40
79716;DHT22;69209;51.420;5.400;2023-04-15T11:26:00;24.00;36.50
79716;DHT22;69209;51.420;5.400;2023-04-15T11:28:29;24.00;36.30
79716;DHT22;69209;51.420;5.400;2023-04-15T11:30:55;23.90;36.90
79716;DHT22;69209;51.420;5.400;2023-04-15T11:33:21;24.00;37.30
79716;DHT22;69209;51.420;5.400;2023-04-15T11:35:48;24.00;37.30
79716;DHT22;69209;51.420;5.400;2023-04-15T11:38:14;24.00;38.20
79716;DHT22;69209;51.420;5.400;2023-04-15T11:40:40;23.90;37.10
79716;DHT22;69209;51.420;5.400;2023-04-15T11:43:06;24.00;37.00
79716;DHT22;69209;51.420;5.400;2023-04-15T11:45:32;23.90;36.80
79716;DHT22;69209;51.420;5.400;2023-04-15T11:48:05;24.00;37.60
79716;DHT22;69209;51.420;5.400;2023-04-15T11:50:31;24.00;37.30
79716;DHT22;69209;51.420;5.400;2023-04-15T11:52:57;24.00;37.40
79716;DHT22;69209;51.420;5.400;2023-04-15T11:55:23;24.00;38.50
79716;DHT22;69209;51.420;5.400;2023-04-15T11:58:04;23.90;37.50
79716;DHT22;69209;51.420;5.400;2023-04-15T12:00:30;23.80;38.00
79716;DHT22;69209;51.420;5.400;2023-04-15T12:03:16;23.70;37.60
79716;DHT22;69209;51.420;5.400;2023-04-15T12:08:46;23.40;38.60
79716;DHT22;69209;51.420;5.400;2023-04-15T12:11:12;23.30;38.90
79716;DHT22;69209;51.420;5.400;2023-04-15T12:13:38;23.10;38.60
79716;DHT22;69209;51.420;5.400;2023-04-15T12:16:07;22.90;38.80
79716;DHT22;69209;51.420;5.400;2023-04-15T12:18:33;22.80;38.60
79716;DHT22;69209;51.420;5.400;2023-04-15T12:21:03;22.60;39.20
79716;DHT22;69209;51.420;5.400;2023-04-15T12:23:29;22.50;40.30
79716;DHT22;69209;51.420;5.400;2023-04-15T12:25:55;22.30;40.30
79716;DHT22;69209;51.420;5.400;2023-04-15T12:28:21;22.20;40.90
79716;DHT22;69209;51.420;5.400;2023-04-15T12:30:49;22.20;41.10
79716;DHT22;69209;51.420;5.400;2023-04-15T12:33:15;22.10;41.50
79716;DHT22;69209;51.420;5.400;2023-04-15T12:35:41;22.00;41.20
79716;DHT22;69209;51.420;5.400;2023-04-15T12:38:07;21.80;40.90
79716;DHT22;69209;51.420;5.400;2023-04-15T12:40:35;21.70;41.00
79716;DHT22;69209;51.420;5.400;2023-04-15T12:43:00;21.70;41.80
79716;DHT22;69209;51.420;5.400;2023-04-15T12:45:26;21.70;42.10
79716;DHT22;69209;51.420;5.400;2023-04-15T12:47:51;21.80;42.90
79716;DHT22;69209;51.420;5.400;2023-04-15T12:50:16;21.90;43.50
79716;DHT22;69209;51.420;5.400;2023-04-15T12:52:42;21.90;44.00
79716;DHT22;69209;51.420;5.400;2023-04-15T12:55:08;21.90;44.50
79716;DHT22;69209;51.420;5.400;2023-04-15T12:57:33;21.90;44.60
79716;DHT22;69209;51.420;5.400;2023-04-15T12:59:59;21.90;44.80
79716;DHT22;69209;51.420;5.400;2023-04-15T13:02:24;21.90;45.10
79716;DHT22;69209;51.420;5.400;2023-04-15T13:04:53;21.80;45.10
79716;DHT22;69209;51.420;5.400;2023-04-15T13:07:18;21.90;45.50
79716;DHT22;69209;51.420;5.400;2023-04-15T13:09:44;21.80;45.30
79716;DHT22;69209;51.420;5.400;2023-04-15T13:12:09;21.90;45.70
79716;DHT22;69209;51.420;5.400;2023-04-15T13:14:37;21.90;45.90
79716;DHT22;69209;51.420;5.400;2023-04-15T13:17:03;21.90;45.90
79716;DHT22;69209;51.420;5.400;2023-04-15T13:19:34;21.90;46.30
79716;DHT22;69209;51.420;5.400;2023-04-15T13:25:04;21.90;46.50
79716;DHT22;69209;51.420;5.400;2023-04-15T13:27:30;21.90;46.50
79716;DHT22;69209;51.420;5.400;2023-04-15T13:29:55;21.90;46.80
79716;DHT22;69209;51.420;5.400;2023-04-15T13:32:21;21.80;46.90
79716;DHT22;69209;51.420;5.400;2023-04-15T13:34:47;21.80;47.20
79716;DHT22;69209;51.420;5.400;2023-04-15T13:37:12;21.80;47.50
79716;DHT22;69209;51.420;5.400;2023-04-15T13:39:38;21.70;47.60
79716;DHT22;69209;51.420;5.400;2023-04-15T13:42:03;21.70;47.80
79716;DHT22;69209;51.420;5.400;2023-04-15T13:44:29;21.70;48.00
79716;DHT22;69209;51.420;5.400;2023-04-15T13:46:55;21.60;48.10
79716;DHT22;69209;51.420;5.400;2023-04-15T13:49:21;21.60;48.60
79716;DHT22;69209;51.420;5.400;2023-04-15T13:51:46;21.60;48.70
79716;DHT22;69209;51.420;5.400;2023-04-15T13:54:11;21.60;49.10
79716;DHT22;69209;51.420;5.400;2023-04-15T13:56:37;21.60;49.50
79716;DHT22;69209;51.420;5.400;2023-04-15T13:59:02;21.50;49.30
79716;DHT22;69209;51.420;5.400;2023-04-15T14:01:28;21.50;49.40
79716;DHT22;69209;51.420;5.400;2023-04-15T14:03:54;21.40;49.50
79716;DHT22;69209;51.420;5.400;2023-04-15T14:06:19;21.40;49.60
79716;DHT22;69209;51.420;5.400;2023-04-15T14:08:45;21.40;49.70
79716;DHT22;69209;51.420;5.400;2023-04-15T14:11:11;21.40;49.90
79716;DHT22;69209;51.420;5.400;2023-04-15T14:13:36;21.30;50.10
79716;DHT22;69209;51.420;5.400;2023-04-15T14:16:02;21.20;50.50
79716;DHT22;69209;51.420;5.400;2023-04-15T14:18:28;21.20;50.80
79716;DHT22;69209;51.420;5.400;2023-04-15T14:20:54;21.10;50.80
79716;DHT22;69209;51.420;5.400;2023-04-15T14:23:20;21.10;51.10
79716;DHT22;69209;51.420;5.400;2023-04-15T14:25:45;21.10;51.30
79716;DHT22;69209;51.420;5.400;2023-04-15T14:28:11;21.10;51.50
79716;DHT22;69209;51.420;5.400;2023-04-15T14:30:36;21.20;51.60
79716;DHT22;69209;51.420;5.400;2023-04-15T14:33:02;21.10;48.70
79716;DHT22;69209;51.420;5.400;2023-04-15T14:35:27;20.90;47.40
79716;DHT22;69209;51.420;5.400;2023-04-15T14:37:53;20.80;46.90
79716;DHT22;69209;51.420;5.400;2023-04-15T14:40:19;20.60;46.60
79716;DHT22;69209;51.420;5.400;2023-04-15T14:42:45;20.30;46.10
79716;DHT22;69209;51.420;5.400;2023-04-15T14:45:10;20.10;46.80
79716;DHT22;69209;51.420;5.400;2023-04-15T14:47:36;20.10;47.40
79716;DHT22;69209;51.420;5.400;2023-04-15T14:50:01;20.10;47.90
79716;DHT22;69209;51.420;5.400;2023-04-15T14:52:29;20.20;48.50
79716;DHT22;69209;51.420;5.400;2023-04-15T14:54:54;20.30;48.70
79716;DHT22;69209;51.420;5.400;2023-04-15T14:57:20;20.30;49.00
79716;DHT22;69209;51.420;5.400;2023-04-15T14:59:45;20.40;49.30
79716;DHT22;69209;51.420;5.400;2023-04-15T15:02:11;20.40;49.40
79716;DHT22;69209;51.420;5.400;2023-04-15T15:04:37;20.40;49.60
79716;DHT22;69209;51.420;5.400;2023-04-15T15:07:04;20.50;49.80
79716;DHT22;69209;51.420;5.400;2023-04-15T15:09:30;20.50;49.90
79716;DHT22;69209;51.420;5.400;2023-04-15T15:11:56;20.50;50.20
79716;DHT22;69209;51.420;5.400;2023-04-15T15:14:22;20.40;50.30
79716;DHT22;69209;51.420;5.400;2023-04-15T15:16:47;20.30;47.90
79716;DHT22;69209;51.420;5.400;2023-04-15T15:19:13;20.10;47.60
79716;DHT22;69209;51.420;5.400;2023-04-15T15:21:38;20.10;48.30
79716;DHT22;69209;51.420;5.400;2023-04-15T15:24:04;20.10;48.90
79716;DHT22;69209;51.420;5.400;2023-04-15T15:26:29;20.10;49.50
79716;DHT22;69209;51.420;5.400;2023-04-15T15:28:55;20.10;49.80
79716;DHT22;69209;51.420;5.400;2023-04-15T15:31:20;20.10;50.30
79716;DHT22;69209;51.420;5.400;2023-04-15T15:33:46;20.10;50.20
79716;DHT22;69209;51.420;5.400;2023-04-15T15:36:11;20.00;50.40
79716;DHT22;69209;51.420;5.400;2023-04-15T15:38:37;19.90;50.60
79716;DHT22;69209;51.420;5.400;2023-04-15T15:41:04;19.90;50.80
79716;DHT22;69209;51.420;5.400;2023-04-15T15:43:29;19.70;49.00
79716;DHT22;69209;51.420;5.400;2023-04-15T15:45:55;19.40;48.10